createdAt,value
2022-08-31T00:01:16.264Z,1.30
2022-08-31T00:06:38.777Z,1.23
2022-08-31T00:12:01.152Z,1.23
2022-08-31T00:17:23.634Z,1.20
2022-08-31T00:22:46.880Z,1.63
2022-08-31T00:28:11.741Z,1.83
2022-08-31T00:33:36.772Z,1.60
2022-08-31T00:38:59.465Z,1.40
2022-08-31T00:44:23.320Z,1.23
2022-08-31T00:49:51.443Z,1.30
2022-08-31T00:55:24.813Z,1.40
2022-08-31T01:00:47.866Z,1.30
2022-08-31T01:06:10.349Z,1.80
2022-08-31T01:11:33.571Z,1.40
2022-08-31T01:16:56.527Z,1.20
2022-08-31T01:22:39.012Z,1.27
2022-08-31T01:28:05.940Z,1.40
2022-08-31T01:33:28.988Z,1.50
2022-08-31T01:38:53.249Z,1.37
2022-08-31T01:44:20.013Z,1.60
2022-08-31T01:49:42.708Z,1.63
2022-08-31T01:55:07.824Z,1.60
2022-08-31T02:00:31.355Z,1.27
2022-08-31T02:11:18.022Z,1.60
2022-08-31T02:16:42.883Z,1.30
2022-08-31T02:22:05.740Z,1.60
2022-08-31T02:27:28.219Z,1.60
2022-08-31T02:32:51.962Z,1.83
2022-08-31T02:38:14.368Z,1.50
2022-08-31T02:43:36.703Z,1.30
2022-08-31T02:49:00.244Z,1.60
2022-08-31T02:54:22.817Z,1.50
2022-08-31T02:59:47.317Z,1.50
2022-08-31T03:05:10.482Z,1.40
2022-08-31T03:10:33.641Z,1.57
2022-08-31T03:15:56.567Z,1.60
2022-08-31T03:21:18.946Z,1.40
2022-08-31T03:26:41.507Z,1.20
2022-08-31T03:32:03.926Z,1.47
2022-08-31T03:37:28.276Z,1.40
2022-08-31T03:42:56.734Z,1.60
2022-08-31T03:48:19.330Z,1.50
2022-08-31T03:53:41.850Z,1.40
2022-08-31T03:59:06.924Z,1.43
2022-08-31T04:04:58.835Z,1.50
2022-08-31T04:10:42.917Z,1.60
2022-08-31T04:16:25.210Z,1.60
2022-08-31T04:22:15.043Z,1.57
2022-08-31T04:27:51.930Z,1.60
2022-08-31T04:33:15.177Z,1.50
2022-08-31T04:38:37.673Z,1.40
2022-08-31T04:44:02.428Z,1.33
2022-08-31T04:49:25.104Z,1.70
2022-08-31T04:54:47.627Z,1.70
2022-08-31T05:00:11.095Z,2.00
2022-08-31T05:05:57.554Z,2.20
2022-08-31T05:11:24.990Z,1.67
2022-08-31T05:16:48.274Z,1.60
2022-08-31T05:22:11.411Z,1.60
2022-08-31T05:27:36.850Z,2.00
2022-08-31T05:32:58.986Z,1.70
2022-08-31T05:38:22.105Z,1.53
2022-08-31T05:43:44.844Z,1.30
2022-08-31T05:49:08.675Z,1.80
2022-08-31T05:54:35.839Z,1.47
2022-08-31T05:59:58.556Z,1.27
2022-08-31T06:05:22.761Z,1.37
2022-08-31T06:10:49.213Z,1.13
2022-08-31T06:16:12.401Z,1.30
2022-08-31T06:21:39.041Z,1.20
2022-08-31T06:27:13.112Z,1.00
2022-08-31T06:32:36.103Z,1.10
2022-08-31T06:38:00.427Z,1.20
2022-08-31T06:43:43.437Z,1.50
2022-08-31T06:49:17.293Z,0.93
2022-08-31T06:54:39.729Z,1.20
2022-08-31T07:00:20.732Z,1.40
2022-08-31T07:05:57.943Z,0.90
2022-08-31T07:11:30.028Z,1.10
2022-08-31T07:16:56.587Z,0.80
2022-08-31T07:22:19.318Z,1.00
2022-08-31T07:27:46.924Z,0.73
2022-08-31T07:33:11.031Z,1.00
2022-08-31T07:39:00.527Z,1.00
2022-08-31T07:44:24.405Z,0.80
2022-08-31T07:49:51.343Z,0.88
2022-08-31T07:55:29.412Z,0.90
2022-08-31T08:01:00.247Z,0.90
2022-08-31T08:06:28.551Z,1.10
2022-08-31T08:12:22.615Z,0.70
2022-08-31T08:17:44.990Z,1.00
2022-08-31T08:23:14.050Z,0.90
2022-08-31T08:28:55.693Z,1.00
2022-08-31T08:34:21.431Z,0.90
2022-08-31T08:39:55.993Z,1.35
2022-08-31T08:45:19.455Z,0.90
2022-08-31T08:50:42.662Z,0.73
2022-08-31T08:56:32.362Z,0.80
2022-08-31T09:02:02.322Z,0.90
2022-08-31T09:07:31.665Z,1.30
2022-08-31T09:13:00.109Z,1.10
2022-08-31T09:19:06.829Z,0.70
2022-08-31T09:24:30.551Z,0.50
2022-08-31T09:30:06.414Z,0.50
2022-08-31T09:35:37.943Z,0.70
2022-08-31T09:41:02.572Z,0.80
2022-08-31T09:46:30.114Z,0.60
2022-08-31T09:51:55.482Z,1.20
2022-08-31T09:57:18.928Z,0.63
2022-08-31T10:02:43.909Z,0.85
2022-08-31T10:08:58.343Z,0.70
2022-08-31T10:14:51.428Z,0.70
2022-08-31T10:21:09.543Z,0.68
2022-08-31T10:26:40.361Z,0.90
2022-08-31T10:32:17.430Z,1.05
2022-08-31T10:37:49.730Z,0.68
2022-08-31T10:43:18.964Z,0.60
2022-08-31T10:48:47.482Z,0.68
2022-08-31T10:54:31.132Z,0.77
2022-08-31T11:00:02.850Z,0.60
2022-08-31T11:05:50.409Z,0.90
2022-08-31T11:11:43.865Z,0.80
2022-08-31T11:17:25.382Z,0.75
2022-08-31T11:22:51.654Z,0.90
2022-08-31T11:28:48.303Z,0.60
2022-08-31T11:34:17.501Z,1.48
2022-08-31T11:39:44.586Z,0.60
2022-08-31T11:45:27.105Z,0.50
2022-08-31T11:50:56.198Z,0.60
2022-08-31T11:56:36.562Z,0.50
2022-08-31T12:02:02.089Z,0.50
2022-08-31T12:07:28.011Z,0.63
2022-08-31T12:13:07.641Z,0.60
2022-08-31T12:18:51.580Z,0.60
2022-08-31T12:24:28.496Z,0.88
2022-08-31T12:30:22.831Z,0.40
2022-08-31T12:35:49.583Z,0.63
2022-08-31T12:41:14.714Z,0.60
2022-08-31T12:47:16.939Z,0.70
2022-08-31T12:53:11.477Z,0.70
2022-08-31T12:59:17.411Z,0.68
2022-08-31T13:04:44.880Z,0.80
2022-08-31T13:10:10.116Z,0.52
2022-08-31T13:15:39.920Z,0.93
2022-08-31T13:21:06.018Z,0.60
2022-08-31T13:26:28.546Z,0.77
2022-08-31T13:31:52.247Z,0.50
2022-08-31T13:37:24.164Z,0.70
2022-08-31T13:42:55.503Z,0.40
2022-08-31T13:48:32.510Z,0.82
2022-08-31T13:53:54.948Z,0.50
2022-08-31T13:59:29.217Z,0.50
2022-08-31T14:04:59.732Z,0.75
2022-08-31T14:10:26.435Z,0.65
2022-08-31T14:15:53.690Z,0.82
2022-08-31T14:21:22.013Z,0.70
2022-08-31T14:26:45.104Z,0.60
2022-08-31T14:32:08.746Z,0.57
2022-08-31T14:37:32.040Z,0.40
2022-08-31T14:42:54.303Z,0.60
2022-08-31T14:48:19.419Z,0.57
2022-08-31T14:53:42.941Z,0.80
2022-08-31T14:59:12.554Z,0.63
2022-08-31T15:04:38.050Z,0.50
2022-08-31T15:10:06.859Z,0.80
2022-08-31T15:15:29.636Z,0.70
2022-08-31T15:20:52.163Z,0.60
2022-08-31T15:26:17.130Z,0.70
2022-08-31T15:31:46.986Z,0.70
2022-08-31T15:37:09.914Z,0.60
2022-08-31T15:42:39.918Z,0.80
2022-08-31T15:48:21.279Z,0.80
2022-08-31T15:53:52.720Z,0.65
2022-08-31T15:59:27.873Z,0.80
2022-08-31T16:04:52.085Z,0.70
2022-08-31T16:10:19.705Z,1.00
2022-08-31T16:15:51.775Z,0.60
2022-08-31T16:21:15.607Z,0.50
2022-08-31T16:26:41.110Z,0.68
2022-08-31T16:32:06.774Z,0.60
2022-08-31T16:37:29.144Z,0.70
2022-08-31T16:42:51.440Z,0.55
2022-08-31T16:48:32.724Z,0.90
2022-08-31T16:53:59.334Z,0.60
2022-08-31T16:59:21.933Z,0.50
2022-08-31T17:04:53.912Z,0.70
2022-08-31T17:10:16.783Z,1.17
2022-08-31T17:15:39.598Z,0.77
2022-08-31T17:21:03.639Z,1.10
2022-08-31T17:26:33.925Z,0.80
2022-08-31T17:31:56.527Z,0.90
2022-08-31T17:37:27.280Z,1.08
2022-08-31T17:42:50.199Z,0.93
2022-08-31T17:48:13.350Z,1.55
2022-08-31T17:53:37.487Z,0.95
2022-08-31T17:59:02.869Z,2.10
2022-08-31T18:04:27.733Z,0.80
2022-08-31T18:09:51.154Z,0.90
2022-08-31T18:15:14.700Z,1.00
2022-08-31T18:20:40.213Z,1.02
2022-08-31T18:26:11.959Z,0.98
2022-08-31T18:31:38.061Z,2.28
2022-08-31T18:37:01.489Z,2.55
2022-08-31T18:42:43.152Z,2.15
2022-08-31T18:53:48.648Z,1.70
2022-08-31T18:59:11.678Z,1.95
2022-08-31T19:04:36.085Z,2.03
2022-08-31T19:09:58.751Z,2.25
2022-08-31T19:15:21.157Z,2.70
2022-08-31T19:20:43.725Z,2.80
2022-08-31T19:26:06.087Z,3.45
2022-08-31T19:31:30.252Z,3.53
2022-08-31T19:36:54.752Z,4.93
2022-08-31T19:42:19.339Z,5.73
2022-08-31T19:47:41.991Z,4.70
2022-08-31T19:53:04.836Z,4.70
2022-08-31T19:58:27.236Z,4.20
2022-08-31T20:03:50.773Z,3.17
2022-08-31T20:09:13.760Z,2.10
2022-08-31T20:14:36.377Z,1.20
2022-08-31T20:20:00.149Z,1.60
2022-08-31T20:25:25.857Z,1.23
2022-08-31T20:30:48.692Z,1.00
2022-08-31T20:36:21.507Z,1.00
2022-08-31T20:41:46.822Z,0.80
2022-08-31T20:47:30.098Z,1.17
2022-08-31T20:52:52.422Z,0.90
2022-08-31T20:58:14.932Z,1.07
2022-08-31T21:03:38.123Z,1.47
2022-08-31T21:09:00.601Z,1.50
2022-08-31T21:14:26.419Z,1.00
2022-08-31T21:19:49.242Z,1.17
2022-08-31T21:25:12.983Z,1.10
2022-08-31T21:30:35.832Z,1.00
2022-08-31T21:36:04.297Z,1.13
2022-08-31T21:41:28.972Z,1.00
2022-08-31T21:46:51.868Z,1.10
2022-08-31T21:52:16.302Z,0.60
2022-08-31T21:57:38.618Z,1.00
2022-08-31T22:03:03.169Z,1.00
2022-08-31T22:08:26.189Z,1.07
2022-08-31T22:13:52.162Z,0.83
2022-08-31T22:19:18.713Z,0.87
2022-08-31T22:24:42.127Z,0.90
2022-08-31T22:30:05.472Z,0.87
2022-08-31T22:35:28.011Z,0.87
2022-08-31T22:40:50.860Z,0.80
2022-08-31T22:46:20.399Z,1.10
2022-08-31T22:51:48.511Z,1.00
2022-08-31T22:57:11.186Z,1.00
2022-08-31T23:02:33.638Z,0.83
2022-08-31T23:07:56.354Z,0.90
2022-08-31T23:13:18.744Z,0.90
2022-08-31T23:18:43.907Z,0.90
2022-08-31T23:24:13.866Z,1.60
2022-08-31T23:29:47.775Z,1.00
2022-08-31T23:35:13.651Z,0.70
2022-08-31T23:40:36.117Z,0.90
2022-08-31T23:46:02.242Z,0.67
2022-08-31T23:51:25.139Z,1.10
2022-08-31T23:56:48.203Z,0.70
